Brownsville, TX

9:08 AM CST on February 11, 2016 (GMT -0600)
RGV | | Change Station
CLOSE
Current Station
Personal Weather Station
Location: Brownsville, TX
Elevation: 26 ft
Nearby Weather Stations

Elev 26 ft 25.99 °N, 97.47 °W | Updated 3 minutes ago

Clear
Clear
65.0 °F
Feels Like 65.0 °F
N
3.0
Wind Variable Wind from South
Gusts 5.0 mph

Today
High -- | Low -- °F
--% Chance of Precip.
Yesterday
High -- | Low -- °F
Precip. -- in
Pressure 30.23 in
Visibility 10.0 miles
Clouds Clear
Dew Point 57 °F
Humidity 76%
Rainfall 0.00 in
Snow Depth Not available.
7:08 AM 6:20 PM
Waxing Crescent, 12% visible
METAR KBRO 111453Z 19013KT 10SM CLR 18/13 A3023 RMK AO2 SLP235 T01780133 51009
Pressure 30.23 in
Visibility 10.0 miles
Clouds Clear
Dew Point 57 °F
Humidity 76%
Rainfall 0.00 in
Snow Depth Not available.
7:08 AM 6:20 PM
Waxing Crescent, 12% visible
METAR KBRO 111453Z 19013KT 10SM CLR 18/13 A3023 RMK AO2 SLP235 T01780133 51009

10-Day Weather Forecast

Almanac

Astronomy

Feb. 11, 2016 Rise Set
Actual Time
Civil Twilight
Nautical Twilight
Astronomical Twilight
Moon
Length of Visible Light
Length of Day
Tomorrow will be .
, % of the Moon is Illuminated

Today's Extremes

State Highs State Lows

Community

WunderPhotos

Upload Photos

1,892,059 photos uploaded!

WunderBlog® & News

Nearby

Air Quality

  Air Quality AQ Index Pollutant
Not available.

Snow Depth

Station Depth Elevation

Earthquake Activity

City Distance Mag. Time & Date
Minimum magnitude displayed is 2.5.

Coastal Water Temperatures

Place Temperature

Stations

Nearby Weather Stations

Station Location Temp. Windchill Dew Point Humidity Wind Precip. Elev Updated Type
                   

Watches & Warnings

There are currently no watches in effect.